Time;durP1;ratioP1;P1;durP2;ratioP2;P2;SDS_P1;SDS_P2;PMS_P1;PMS_P2;Temp;Humidity;BMP_temperature;BMP_pressure;BME280_temperature;BME280_humidity;BME280_pressure;Samples;Min_cycle;Max_cycle;Signal;HPM_P1;HPM_P2
2023/10/21 00:00:51;;;;;;;2.08;0.30;;;;;;;11.68;100.00;90705.84;2113563;28;20028;-82
2023/10/21 00:01:52;;;;;;;8.20;0.30;;;;;;;11.78;100.00;90702.47;2113216;28;20103;-81
2023/10/21 00:03:02;;;;;;;0.50;0.20;;;;;;;11.69;100.00;90712.66;2097425;28;20029;-80
2023/10/21 00:04:04;;;;;;;2.13;0.20;;;;;;;11.44;100.00;90714.97;2098364;28;20520;-81
2023/10/21 00:05:06;;;;;;;0.20;0.20;;;;;;;11.43;100.00;90710.13;2109832;28;20107;-78
2023/10/21 00:06:07;;;;;;;0.50;0.30;;;;;;;11.51;100.00;90705.78;2114236;28;20020;-80
2023/10/21 00:07:09;;;;;;;0.30;0.20;;;;;;;11.60;100.00;90721.63;2099089;28;20646;-79
2023/10/21 00:08:10;;;;;;;0.60;0.40;;;;;;;11.81;100.00;90730.94;2097638;28;20039;-80
2023/10/21 00:09:11;;;;;;;0.63;0.20;;;;;;;11.78;100.00;90741.88;2091599;28;20060;-81
2023/10/21 00:10:12;;;;;;;0.80;0.20;;;;;;;11.81;100.00;90744.34;2097407;28;20028;-79
2023/10/21 00:11:13;;;;;;;0.30;0.30;;;;;;;11.65;100.00;90750.34;2113528;28;20035;-82
2023/10/21 00:12:14;;;;;;;0.65;0.30;;;;;;;11.78;100.00;90742.59;2110486;28;20877;-79
2023/10/21 00:13:15;;;;;;;2.25;0.30;;;;;;;11.76;100.00;90738.94;2105309;28;20046;-79
2023/10/21 00:14:17;;;;;;;0.38;0.30;;;;;;;11.76;100.00;90753.03;2103112;28;20048;-80
2023/10/21 00:15:18;;;;;;;0.20;0.20;;;;;;;11.58;100.00;90748.09;2104117;28;20035;-79
2023/10/21 00:16:19;;;;;;;0.60;0.22;;;;;;;11.48;100.00;90752.19;2097152;28;20473;-82
2023/10/21 00:17:20;;;;;;;0.17;0.17;;;;;;;11.58;100.00;90762.22;2107248;28;20550;-81
2023/10/21 00:18:22;;;;;;;0.20;0.20;;;;;;;11.52;100.00;90764.16;2114719;28;20059;-80
2023/10/21 00:19:23;;;;;;;0.45;0.20;;;;;;;11.39;100.00;90763.09;2106546;28;20072;-82
2023/10/21 00:20:23;;;;;;;1.50;0.20;;;;;;;11.32;100.00;90778.38;2091687;28;20028;-82
2023/10/21 00:21:25;;;;;;;1.00;0.20;;;;;;;11.33;100.00;90785.19;2105824;28;20737;-78
2023/10/21 00:22:28;;;;;;;0.30;0.30;;;;;;;11.42;100.00;90786.22;2114395;28;20133;-81
2023/10/21 00:23:29;;;;;;;0.22;0.22;;;;;;;11.46;100.00;90781.38;2105428;28;20034;-81
2023/10/21 00:24:30;;;;;;;1.35;0.20;;;;;;;11.47;100.00;90788.19;2096446;28;20056;-81
2023/10/21 00:25:31;;;;;;;2.45;0.20;;;;;;;11.45;100.00;90783.31;2104948;28;20031;-80
2023/10/21 00:26:47;;;;;;;0.20;0.20;;;;;;;11.51;100.00;90789.44;2105483;28;20067;-82
2023/10/21 00:27:48;;;;;;;0.63;0.22;;;;;;;11.49;100.00;90785.75;2113727;28;20022;-80
2023/10/21 00:28:49;;;;;;;1.30;0.25;;;;;;;11.46;100.00;90798.16;2112368;28;20031;-82
2023/10/21 00:29:50;;;;;;;0.32;0.30;;;;;;;11.44;100.00;90797.91;2109322;28;20118;-83
2023/10/21 00:30:51;;;;;;;2.70;0.40;;;;;;;11.57;100.00;90800.88;2108787;28;20082;-83
2023/10/21 00:31:52;;;;;;;1.00;0.20;;;;;;;11.50;100.00;90795.25;2114027;27;20427;-79
2023/10/21 00:32:53;;;;;;;0.20;0.20;;;;;;;11.49;100.00;90804.50;2116489;28;20050;-79
2023/10/21 00:33:54;;;;;;;0.50;0.30;;;;;;;11.59;100.00;90824.50;2113044;28;20027;-80
2023/10/21 00:34:55;;;;;;;1.40;0.20;;;;;;;11.72;100.00;90791.97;2111568;28;20020;-79
2023/10/21 00:35:56;;;;;;;2.67;0.30;;;;;;;11.67;100.00;90811.41;2111314;28;20042;-81
2023/10/21 00:36:57;;;;;;;0.80;0.30;;;;;;;11.60;100.00;90818.66;2113567;28;20479;-82
2023/10/21 00:37:58;;;;;;;0.22;0.20;;;;;;;11.69;100.00;90822.38;2113789;28;20031;-79
2023/10/21 00:38:59;;;;;;;2.28;0.30;;;;;;;11.66;100.00;90816.03;2110261;28;20075;-81
2023/10/21 00:40:00;;;;;;;2.60;0.22;;;;;;;11.91;100.00;90830.53;2097289;28;20021;-81
2023/10/21 00:41:01;;;;;;;0.45;0.30;;;;;;;11.84;100.00;90831.72;2090117;28;20120;-81
2023/10/21 00:42:06;;;;;;;1.23;0.20;;;;;;;12.00;100.00;90827.66;2112132;28;20034;-83
2023/10/21 00:43:07;;;;;;;0.35;0.20;;;;;;;12.05;100.00;90834.97;2112847;28;20019;-81
2023/10/21 00:44:08;;;;;;;0.43;0.20;;;;;;;12.08;100.00;90833.28;2103523;28;20024;-81
2023/10/21 00:45:15;;;;;;;0.20;0.20;;;;;;;12.03;100.00;90840.09;2105495;28;20050;-80
2023/10/21 00:46:19;;;;;;;0.20;0.20;;;;;;;12.01;100.00;90842.50;2102090;28;20111;-82
2023/10/21 00:47:21;;;;;;;6.05;0.43;;;;;;;12.04;100.00;90843.50;2107977;28;20023;-81
2023/10/21 00:48:22;;;;;;;1.38;0.30;;;;;;;11.98;100.00;90840.78;2113459;28;20027;-83
2023/10/21 00:49:23;;;;;;;0.20;0.20;;;;;;;12.12;100.00;90841.09;2112625;28;20092;-82
2023/10/21 00:50:23;;;;;;;0.47;0.40;;;;;;;12.14;100.00;90839.41;2113923;28;20414;-82
2023/10/21 00:51:26;;;;;;;1.45;0.40;;;;;;;12.20;100.00;90850.13;2114227;28;20027;-82
2023/10/21 00:52:27;;;;;;;0.40;0.30;;;;;;;12.35;100.00;90851.41;2104606;28;20020;-80
2023/10/21 00:53:29;;;;;;;0.45;0.22;;;;;;;12.17;100.00;90856.47;2105780;28;20154;-81
2023/10/21 00:54:30;;;;;;;0.22;0.22;;;;;;;12.10;100.00;90858.38;2113294;28;20074;-81
2023/10/21 00:55:31;;;;;;;4.13;0.45;;;;;;;12.15;100.00;90845.47;2111773;28;20016;-81
2023/10/21 00:56:32;;;;;;;0.32;0.30;;;;;;;12.23;100.00;90860.63;2113900;28;20433;-81
2023/10/21 00:57:33;;;;;;;0.88;0.20;;;;;;;12.12;100.00;90863.25;2098387;28;20024;-80
2023/10/21 00:58:35;;;;;;;0.30;0.30;;;;;;;12.09;100.00;90864.94;2097663;28;20644;-81
2023/10/21 00:59:36;;;;;;;1.27;0.40;;;;;;;12.08;100.00;90862.75;2113274;28;20031;-80
2023/10/21 01:00:37;;;;;;;0.20;0.20;;;;;;;12.13;100.00;90867.41;2113369;28;20093;-79
2023/10/21 01:01:38;;;;;;;0.88;0.30;;;;;;;12.08;100.00;90884.19;2113529;28;20109;-79
2023/10/21 01:02:43;;;;;;;0.30;0.30;;;;;;;11.92;100.00;90871.41;2105078;28;20488;-81
2023/10/21 01:03:44;;;;;;;0.47;0.30;;;;;;;11.82;100.00;90873.53;2096529;28;20485;-81
2023/10/21 01:04:45;;;;;;;2.45;0.40;;;;;;;11.77;100.00;90884.94;2113809;28;20051;-79
2023/10/21 01:05:46;;;;;;;0.80;0.30;;;;;;;11.76;100.00;90881.50;2104963;28;20078;-81
2023/10/21 01:06:47;;;;;;;0.73;0.40;;;;;;;11.85;100.00;90880.63;2105285;28;20051;-81
2023/10/21 01:07:48;;;;;;;2.05;0.35;;;;;;;12.29;100.00;90890.09;2097692;28;20385;-81
2023/10/21 01:08:49;;;;;;;0.80;0.30;;;;;;;12.25;100.00;90874.28;2104773;28;20020;-82
2023/10/21 01:10:09;;;;;;;1.35;0.20;;;;;;;12.07;100.00;90880.75;2094082;28;20719;-79
2023/10/21 01:11:10;;;;;;;1.30;0.47;;;;;;;12.14;100.00;90890.28;2106601;28;20107;-81
2023/10/21 01:12:11;;;;;;;1.55;0.30;;;;;;;12.06;100.00;90875.88;2113342;28;20442;-81
2023/10/21 01:13:12;;;;;;;2.00;0.30;;;;;;;12.10;100.00;90885.16;2114012;28;20026;-82
2023/10/21 01:14:13;;;;;;;0.10;0.10;;;;;;;12.08;100.00;90879.53;2113576;28;20015;-82
2023/10/21 01:15:14;;;;;;;0.28;0.28;;;;;;;11.94;100.00;90885.81;2113834;28;20023;-79
2023/10/21 01:16:15;;;;;;;0.85;0.20;;;;;;;11.95;100.00;90879.25;2105580;28;20031;-82
2023/10/21 01:17:16;;;;;;;0.43;0.35;;;;;;;11.97;100.00;90878.75;2090322;28;20028;-80
2023/10/21 01:18:18;;;;;;;3.25;0.40;;;;;;;11.96;100.00;90879.97;2097340;28;20474;-80
2023/10/21 01:19:19;;;;;;;1.55;0.30;;;;;;;11.91;100.00;90889.44;2098924;28;20025;-81
2023/10/21 01:20:20;;;;;;;0.40;0.30;;;;;;;11.97;100.00;90884.09;2110422;28;20031;-79
2023/10/21 01:21:21;;;;;;;0.20;0.20;;;;;;;11.91;100.00;90880.66;2113192;28;20023;-80
2023/10/21 01:22:22;;;;;;;0.30;0.30;;;;;;;11.79;100.00;90887.88;2110938;28;20024;-80
2023/10/21 01:23:23;;;;;;;0.32;0.30;;;;;;;11.79;100.00;90891.28;2105382;28;20114;-81
2023/10/21 01:24:24;;;;;;;1.08;0.20;;;;;;;11.82;100.00;90887.69;2109872;28;20047;-80
2023/10/21 01:25:25;;;;;;;1.17;0.30;;;;;;;11.82;100.00;90885.00;2105009;28;20024;-80
2023/10/21 01:26:26;;;;;;;2.53;0.40;;;;;;;11.80;100.00;90884.69;2105469;28;20023;-79
2023/10/21 01:27:27;;;;;;;0.98;0.30;;;;;;;11.47;100.00;90885.22;2105303;28;20656;-83
2023/10/21 01:28:32;;;;;;;2.40;0.30;;;;;;;11.56;100.00;90893.06;2113421;28;20084;-80
2023/10/21 01:29:33;;;;;;;0.50;0.30;;;;;;;11.78;100.00;90891.75;2114173;28;20508;-82
2023/10/21 01:30:34;;;;;;;0.20;0.20;;;;;;;11.77;100.00;90879.59;2112473;28;20701;-82
2023/10/21 01:31:36;;;;;;;0.70;0.50;;;;;;;11.81;100.00;90885.47;2112091;28;20108;-82
2023/10/21 01:32:37;;;;;;;1.65;0.22;;;;;;;11.84;100.00;90884.50;2113503;28;20103;-82
2023/10/21 01:33:38;;;;;;;0.30;0.30;;;;;;;11.82;100.00;90886.91;2105176;28;20035;-79
2023/10/21 01:34:39;;;;;;;1.20;0.50;;;;;;;11.76;100.00;90884.19;2113711;28;20372;-81
2023/10/21 01:35:39;;;;;;;0.25;0.25;;;;;;;11.74;100.00;90891.97;2105740;28;20020;-80
2023/10/21 01:36:40;;;;;;;0.30;0.30;;;;;;;11.82;100.00;90889.59;2106361;28;20059;-81
2023/10/21 01:37:45;;;;;;;0.30;0.20;;;;;;;12.00;100.00;90893.88;2100764;28;20472;-80
2023/10/21 01:38:46;;;;;;;0.73;0.40;;;;;;;11.96;100.00;90888.72;2102292;27;20024;-80
2023/10/21 01:39:48;;;;;;;0.57;0.40;;;;;;;11.82;100.00;90882.31;2114489;28;20073;-80
2023/10/21 01:40:49;;;;;;;1.20;0.40;;;;;;;11.98;100.00;90882.88;2100359;28;20020;-79
2023/10/21 01:42:09;;;;;;;0.20;0.20;;;;;;;12.14;100.00;90884.91;2105954;28;20019;-81
2023/10/21 01:43:10;;;;;;;0.30;0.30;;;;;;;11.97;100.00;90892.88;2108517;28;20083;-80
2023/10/21 01:44:11;;;;;;;1.30;0.30;;;;;;;11.77;100.00;90882.28;2105614;28;20431;-82
2023/10/21 01:45:12;;;;;;;1.65;0.40;;;;;;;11.98;100.00;90874.84;2097825;28;20025;-82
2023/10/21 01:46:13;;;;;;;0.82;0.38;;;;;;;11.84;100.00;90873.81;2114254;28;20091;-80
2023/10/21 01:47:14;;;;;;;0.95;0.30;;;;;;;11.69;100.00;90883.91;2112731;28;20068;-84
2023/10/21 01:48:15;;;;;;;0.30;0.30;;;;;;;11.69;100.00;90883.91;2097735;28;20023;-82
2023/10/21 01:49:16;;;;;;;0.73;0.30;;;;;;;11.55;100.00;90874.84;2101730;28;20024;-85
2023/10/21 01:50:17;;;;;;;2.63;0.35;;;;;;;11.59;100.00;90886.06;2114094;28;20023;-81
2023/10/21 01:51:18;;;;;;;1.55;0.40;;;;;;;11.44;100.00;90891.53;2114535;28;20072;-80
2023/10/21 01:52:20;;;;;;;0.30;0.30;;;;;;;11.39;100.00;90894.88;2111697;28;20353;-82
2023/10/21 01:53:21;;;;;;;1.55;0.32;;;;;;;11.45;100.00;90898.34;2097459;28;20051;-80
2023/10/21 01:54:22;;;;;;;0.50;0.40;;;;;;;11.53;100.00;90886.00;2111072;27;20019;-82
2023/10/21 01:55:23;;;;;;;0.30;0.30;;;;;;;11.46;100.00;90889.13;2122633;27;20023;-83
2023/10/21 01:56:24;;;;;;;0.45;0.40;;;;;;;11.39;100.00;90888.81;2114558;28;20076;-83
2023/10/21 01:57:25;;;;;;;2.47;0.40;;;;;;;11.57;100.00;90885.78;2113881;28;20032;-80
2023/10/21 01:58:25;;;;;;;0.40;0.40;;;;;;;11.64;100.00;90893.38;2114153;28;20027;-83
2023/10/21 01:59:26;;;;;;;0.35;0.35;;;;;;;11.62;100.00;90890.44;2113949;28;20020;-81
2023/10/21 02:00:28;;;;;;;0.73;0.40;;;;;;;11.64;100.00;90892.66;2105742;28;20023;-83
2023/10/21 02:01:29;;;;;;;0.90;0.68;;;;;;;11.63;100.00;90889.22;2105674;28;20047;-81
2023/10/21 02:02:41;;;;;;;1.20;0.40;;;;;;;11.35;100.00;90899.72;2109515;28;20099;-82
2023/10/21 02:03:42;;;;;;;0.30;0.30;;;;;;;11.44;100.00;90915.59;2114310;28;20121;-82
2023/10/21 02:04:43;;;;;;;0.95;0.43;;;;;;;11.47;100.00;90909.31;2113831;28;20033;-80
2023/10/21 02:05:44;;;;;;;0.30;0.30;;;;;;;11.68;100.00;90898.50;2114130;28;20102;-83
2023/10/21 02:06:45;;;;;;;1.42;0.60;;;;;;;11.83;100.00;90902.53;2114093;28;20031;-81
2023/10/21 02:07:47;;;;;;;1.15;0.50;;;;;;;11.72;100.00;90910.47;2113977;28;20023;-81
2023/10/21 02:08:48;;;;;;;0.95;0.40;;;;;;;11.85;100.00;90907.38;2113904;28;20091;-81
2023/10/21 02:09:49;;;;;;;0.88;0.47;;;;;;;11.82;100.00;90914.44;2094574;28;20122;-82
2023/10/21 02:10:50;;;;;;;1.08;0.35;;;;;;;11.81;100.00;90904.94;2105404;28;20555;-84
2023/10/21 02:11:55;;;;;;;0.50;0.32;;;;;;;11.65;100.00;90913.56;2114922;28;20113;-79
2023/10/21 02:12:56;;;;;;;1.20;0.45;;;;;;;11.66;100.00;90917.72;2113229;28;20030;-83
2023/10/21 02:13:57;;;;;;;0.57;0.38;;;;;;;11.62;100.00;90905.75;2114103;28;20494;-80
2023/10/21 02:14:58;;;;;;;0.35;0.30;;;;;;;11.26;100.00;90919.34;2091056;28;20355;-81
2023/10/21 02:15:59;;;;;;;0.30;0.30;;;;;;;11.43;100.00;90921.44;2096520;28;20599;-82
2023/10/21 02:17:00;;;;;;;0.70;0.32;;;;;;;11.57;100.00;90913.25;2102847;28;20024;-80
2023/10/21 02:18:01;;;;;;;1.30;0.32;;;;;;;11.66;100.00;90915.03;2105548;28;20027;-82
2023/10/21 02:19:02;;;;;;;1.23;0.40;;;;;;;11.88;100.00;90914.47;2106212;28;20023;-82
2023/10/21 02:20:03;;;;;;;0.30;0.30;;;;;;;11.94;100.00;90909.91;2105872;28;20024;-82
2023/10/21 02:21:06;;;;;;;1.52;0.40;;;;;;;11.80;100.00;90913.41;2103467;28;20484;-79
2023/10/21 02:23:48;;;;;;;;;;;;;;;10.70;100.00;90924.16;2148725;27;20554;-80
2023/10/21 02:24:51;;;;;;;1.05;0.30;;;;;;;10.72;100.00;90926.38;2137135;27;20408;-79
2023/10/21 02:26:05;;;;;;;0.40;0.35;;;;;;;10.70;100.00;90934.09;2120032;28;20118;-81
2023/10/21 02:27:06;;;;;;;0.30;0.30;;;;;;;11.21;100.00;90927.31;2100135;28;20063;-80
2023/10/21 02:28:07;;;;;;;2.72;0.40;;;;;;;10.76;100.00;90935.63;2113583;27;20483;-79
2023/10/21 02:29:09;;;;;;;0.50;0.30;;;;;;;10.98;100.00;90931.72;2138302;27;20018;-80
2023/10/21 02:30:12;;;;;;;1.27;0.30;;;;;;;11.05;100.00;90940.06;2129654;27;20109;-82
2023/10/21 02:31:13;;;;;;;0.68;0.40;;;;;;;11.21;100.00;90943.38;2126405;27;20028;-81
2023/10/21 02:32:14;;;;;;;1.30;0.30;;;;;;;10.96;100.00;90940.22;2148037;27;20445;-78
2023/10/21 02:33:15;;;;;;;1.17;0.40;;;;;;;10.81;100.00;90947.59;2132255;27;20034;-82
2023/10/21 02:34:16;;;;;;;1.05;0.40;;;;;;;10.78;100.00;90948.53;2127711;27;20023;-81
2023/10/21 02:35:17;;;;;;;2.50;0.38;;;;;;;10.74;100.00;90946.06;2112538;28;20057;-79
2023/10/21 02:36:18;;;;;;;1.60;0.50;;;;;;;10.88;100.00;90944.50;2121148;27;20027;-80
2023/10/21 02:37:19;;;;;;;4.78;0.60;;;;;;;10.95;100.00;90944.09;2121462;28;20055;-78
2023/10/21 02:38:22;;;;;;;0.43;0.32;;;;;;;10.80;100.00;90951.47;2113048;28;20190;-80
2023/10/21 02:39:23;;;;;;;0.40;0.35;;;;;;;10.82;100.00;90946.38;2113615;27;20028;-80
2023/10/21 02:40:24;;;;;;;2.97;0.55;;;;;;;10.76;100.00;90949.00;2121349;28;20103;-80
2023/10/21 02:41:26;;;;;;;1.23;0.57;;;;;;;10.86;100.00;90941.56;2123339;27;20024;-81
2023/10/21 02:42:27;;;;;;;0.52;0.40;;;;;;;11.12;100.00;90949.59;2136484;27;20451;-80
2023/10/21 02:43:28;;;;;;;0.68;0.38;;;;;;;11.13;100.00;90958.34;2115245;27;20112;-81
2023/10/21 02:44:35;;;;;;;2.45;0.50;;;;;;;11.09;100.00;90963.91;2097277;28;20079;-80
2023/10/21 02:45:36;;;;;;;0.47;0.30;;;;;;;11.16;100.00;90949.41;2108601;28;20016;-82
2023/10/21 02:46:37;;;;;;;2.05;0.70;;;;;;;11.23;100.00;90952.38;2110145;28;20027;-80
2023/10/21 02:47:38;;;;;;;1.55;0.30;;;;;;;11.14;100.00;90970.50;2121493;28;20019;-82
2023/10/21 02:48:40;;;;;;;1.52;0.35;;;;;;;11.02;100.00;90959.72;2130501;27;20672;-80
2023/10/21 02:49:42;;;;;;;0.88;0.30;;;;;;;11.21;100.00;90960.16;2115909;28;20020;-79
2023/10/21 02:50:43;;;;;;;0.35;0.30;;;;;;;11.17;100.00;90964.22;2117051;28;20026;-81
2023/10/21 02:51:44;;;;;;;0.30;0.30;;;;;;;11.39;100.00;90969.06;2127314;27;20026;-80
2023/10/21 02:52:45;;;;;;;0.47;0.40;;;;;;;11.23;100.00;90971.09;2124371;27;20421;-82
2023/10/21 02:53:46;;;;;;;0.85;0.40;;;;;;;11.10;100.00;90976.06;2112681;28;20043;-81
2023/10/21 02:54:47;;;;;;;2.95;0.47;;;;;;;11.21;100.00;90978.13;2117392;27;20146;-82
2023/10/21 02:55:49;;;;;;;2.08;0.40;;;;;;;11.10;100.00;90990.16;2138799;27;20432;-81
2023/10/21 02:56:52;;;;;;;2.20;0.50;;;;;;;11.31;100.00;90982.09;2121013;27;20023;-83
2023/10/21 02:57:53;;;;;;;2.00;0.40;;;;;;;11.24;100.00;90980.59;2112764;28;20118;-82
2023/10/21 02:58:54;;;;;;;5.00;0.50;;;;;;;11.16;100.00;90984.16;2121188;27;20023;-80
2023/10/21 02:59:55;;;;;;;1.63;0.50;;;;;;;11.19;100.00;90989.28;2120963;27;20023;-78
2023/10/21 03:00:56;;;;;;;0.47;0.30;;;;;;;11.51;100.00;90989.34;2124866;27;20109;-82
2023/10/21 03:01:57;;;;;;;0.75;0.30;;;;;;;11.32;100.00;90989.66;2113083;28;20092;-82
2023/10/21 03:02:59;;;;;;;0.65;0.40;;;;;;;11.23;100.00;90992.47;2110221;28;20365;-82
2023/10/21 03:04:00;;;;;;;1.17;0.32;;;;;;;11.12;100.00;90992.38;2114674;27;20023;-82
2023/10/21 03:05:09;;;;;;;2.00;0.40;;;;;;;11.23;100.00;90999.78;2120884;27;20521;-79
2023/10/21 03:06:12;;;;;;;2.28;0.80;;;;;;;11.21;100.00;90980.81;2120585;28;20511;-79
2023/10/21 03:07:13;;;;;;;1.13;0.30;;;;;;;11.13;100.00;90993.84;2113020;27;20597;-80
2023/10/21 03:08:14;;;;;;;3.20;0.40;;;;;;;11.09;100.00;90996.72;2122214;27;20027;-80
2023/10/21 03:09:16;;;;;;;1.55;0.30;;;;;;;11.16;100.00;90995.59;2120593;27;20023;-80
2023/10/21 03:10:17;;;;;;;1.33;0.40;;;;;;;11.18;100.00;90984.41;2120894;28;20023;-80
2023/10/21 03:11:18;;;;;;;0.77;0.60;;;;;;;11.20;100.00;90990.03;2117248;28;20031;-80
2023/10/21 03:12:19;;;;;;;0.70;0.30;;;;;;;11.03;100.00;90993.25;2121173;27;20107;-80
2023/10/21 03:13:20;;;;;;;0.47;0.40;;;;;;;11.10;100.00;90989.44;2126878;27;20048;-84
2023/10/21 03:14:21;;;;;;;0.30;0.30;;;;;;;10.97;100.00;90986.38;2118295;28;20027;-81
2023/10/21 03:15:22;;;;;;;1.65;0.22;;;;;;;10.92;100.00;90989.72;2112565;27;20027;-83
2023/10/21 03:16:23;;;;;;;0.68;0.30;;;;;;;10.94;100.00;90990.75;2123707;27;20039;-80
2023/10/21 03:17:25;;;;;;;1.75;0.38;;;;;;;10.90;100.00;90982.19;2126856;27;20455;-82
2023/10/21 03:18:26;;;;;;;0.60;0.30;;;;;;;10.95;100.00;90984.19;2123787;27;20046;-80
2023/10/21 03:19:27;;;;;;;1.98;0.38;;;;;;;10.82;100.00;90983.78;2112548;28;20082;-80
2023/10/21 03:20:32;;;;;;;1.00;0.30;;;;;;;11.01;100.00;90990.31;2125611;27;20027;-80
2023/10/21 03:21:35;;;;;;;1.30;0.60;;;;;;;11.05;100.00;90988.16;2125012;27;20521;-81
2023/10/21 03:22:36;;;;;;;0.52;0.32;;;;;;;10.84;100.00;90990.16;2112716;28;20206;-82
2023/10/21 03:23:37;;;;;;;1.65;0.40;;;;;;;10.80;100.00;90997.63;2112242;28;20381;-81
2023/10/21 03:24:38;;;;;;;0.52;0.35;;;;;;;10.70;100.00;90998.97;2128092;27;20483;-83
2023/10/21 03:25:39;;;;;;;0.93;0.30;;;;;;;10.70;100.00;91003.56;2121800;28;20429;-82
2023/10/21 03:26:40;;;;;;;0.65;0.30;;;;;;;10.87;100.00;90999.16;2117220;28;20088;-81
2023/10/21 03:27:42;;;;;;;0.70;0.40;;;;;;;11.03;100.00;91005.91;2121069;27;20020;-79
2023/10/21 03:28:43;;;;;;;1.02;0.25;;;;;;;11.00;100.00;91015.59;2121987;27;20019;-82
2023/10/21 03:29:44;;;;;;;0.95;0.40;;;;;;;10.89;100.00;91014.72;2112942;27;20023;-79
2023/10/21 03:30:49;;;;;;;0.22;0.22;;;;;;;10.88;100.00;91026.63;2127099;27;20027;-78
2023/10/21 03:31:50;;;;;;;1.33;0.38;;;;;;;10.89;100.00;91028.84;2122751;27;20024;-81
2023/10/21 03:32:51;;;;;;;0.75;0.30;;;;;;;11.05;100.00;91024.88;2117024;28;20024;-81
2023/10/21 03:33:52;;;;;;;0.32;0.22;;;;;;;11.11;100.00;91025.69;2112451;28;20414;-80
2023/10/21 03:34:53;;;;;;;0.20;0.20;;;;;;;11.03;100.00;91030.69;2116438;27;20073;-79
2023/10/21 03:35:56;;;;;;;0.63;0.30;;;;;;;11.13;100.00;91022.53;2115344;28;20024;-79
2023/10/21 03:36:57;;;;;;;2.85;0.20;;;;;;;11.21;100.00;91024.31;2112569;27;20032;-82
2023/10/21 03:37:58;;;;;;;1.42;0.30;;;;;;;11.31;100.00;91030.25;2121798;27;20309;-81
2023/10/21 03:38:59;;;;;;;0.75;0.28;;;;;;;11.62;100.00;91034.94;2108331;28;20380;-80
2023/10/21 03:40:00;;;;;;;0.40;0.30;;;;;;;11.35;100.00;91039.53;2116675;27;20024;-80
2023/10/21 03:41:11;;;;;;;0.38;0.20;;;;;;;11.38;100.00;91040.53;2126885;27;20023;-80
2023/10/21 03:42:12;;;;;;;0.30;0.30;;;;;;;11.16;100.00;91041.03;2123384;27;20027;-81
2023/10/21 03:43:13;;;;;;;1.10;0.35;;;;;;;11.38;100.00;91042.50;2111133;28;20023;-81
2023/10/21 03:44:14;;;;;;;0.63;0.20;;;;;;;11.33;100.00;91047.31;2115651;27;20019;-81
2023/10/21 03:45:15;;;;;;;1.55;0.30;;;;;;;11.28;100.00;91047.22;2117222;27;20061;-79
2023/10/21 03:46:17;;;;;;;2.65;0.32;;;;;;;11.21;100.00;91051.06;2109919;28;20047;-82
2023/10/21 03:47:18;;;;;;;0.22;0.20;;;;;;;11.26;100.00;91042.34;2106862;28;20465;-83
2023/10/21 03:48:19;;;;;;;1.63;0.28;;;;;;;11.44;100.00;91046.69;2105443;28;20032;-80
2023/10/21 03:49:20;;;;;;;0.10;0.10;;;;;;;11.45;100.00;91053.50;2101407;28;20026;-82
2023/10/21 03:50:21;;;;;;;0.30;0.20;;;;;;;11.52;100.00;91050.41;2097998;28;20032;-82
2023/10/21 03:51:22;;;;;;;0.40;0.30;;;;;;;11.45;100.00;91056.16;2105605;28;20024;-79
2023/10/21 03:52:23;;;;;;;0.85;0.30;;;;;;;11.52;100.00;91058.44;2115743;28;20024;-79
2023/10/21 03:53:24;;;;;;;0.13;0.10;;;;;;;11.46;100.00;91059.59;2119372;27;20015;-82
2023/10/21 03:54:25;;;;;;;0.20;0.20;;;;;;;11.41;100.00;91049.56;2121100;27;20047;-80
2023/10/21 03:55:26;;;;;;;0.82;0.30;;;;;;;11.28;100.00;91057.94;2113198;28;20024;-78
2023/10/21 03:56:27;;;;;;;0.82;0.20;;;;;;;11.35;100.00;91060.94;2118566;27;20027;-80
2023/10/21 03:57:28;;;;;;;0.30;0.20;;;;;;;11.24;100.00;91063.50;2125687;27;20669;-79
2023/10/21 03:58:29;;;;;;;0.70;0.30;;;;;;;11.33;100.00;91067.97;2114813;27;20035;-79
2023/10/21 03:59:30;;;;;;;1.35;0.30;;;;;;;11.36;100.00;91077.72;2112682;28;20035;-81
2023/10/21 04:00:31;;;;;;;0.43;0.32;;;;;;;11.27;100.00;91078.59;2107186;28;20073;-82
2023/10/21 04:01:45;;;;;;;0.90;0.40;;;;;;;11.41;100.00;91069.00;2108401;28;20089;-79
2023/10/21 04:02:47;;;;;;;3.10;2.80;;;;;;;11.51;100.00;91083.00;2124127;27;20031;-79
2023/10/21 04:03:48;;;;;;;1.08;0.45;;;;;;;11.44;100.00;91086.81;2115941;27;20027;-79
2023/10/21 04:04:49;;;;;;;0.20;0.20;;;;;;;11.55;100.00;91092.28;2115762;27;20374;-81
2023/10/21 04:05:50;;;;;;;0.30;0.30;;;;;;;11.73;100.00;91087.84;2123465;27;20097;-80
2023/10/21 04:06:51;;;;;;;0.98;0.98;;;;;;;11.75;100.00;91093.44;2109970;28;20389;-79
2023/10/21 04:07:51;;;;;;;1.20;0.30;;;;;;;11.67;100.00;91098.47;2106502;28;20027;-78
2023/10/21 04:08:53;;;;;;;1.00;0.20;;;;;;;11.78;100.00;91097.84;2107871;28;20052;-79
2023/10/21 04:09:53;;;;;;;0.88;0.30;;;;;;;11.70;100.00;91096.78;2121311;27;20487;-81
2023/10/21 04:10:54;;;;;;;1.05;0.28;;;;;;;11.72;100.00;91105.84;2120676;27;20023;-83
2023/10/21 04:11:55;;;;;;;4.88;0.32;;;;;;;11.67;100.00;91103.09;2118705;27;20019;-82
2023/10/21 04:12:56;;;;;;;0.20;0.20;;;;;;;11.74;100.00;91100.72;2114785;28;20023;-80
2023/10/21 04:13:57;;;;;;;0.43;0.20;;;;;;;11.74;100.00;91094.66;2107664;28;20036;-80
2023/10/21 04:14:58;;;;;;;0.32;0.32;;;;;;;11.77;100.00;91102.47;2118342;27;20109;-79
2023/10/21 04:15:59;;;;;;;0.20;0.20;;;;;;;11.77;100.00;91101.75;2120868;27;20084;-81
2023/10/21 04:17:00;;;;;;;1.00;0.30;;;;;;;11.65;100.00;91103.56;2102748;28;20028;-80
2023/10/21 04:18:01;;;;;;;1.05;0.35;;;;;;;11.71;100.00;91103.63;2115217;27;20027;-81
2023/10/21 04:19:02;;;;;;;0.20;0.20;;;;;;;11.78;100.00;91106.63;2106839;28;20476;-81
2023/10/21 04:20:04;;;;;;;0.82;0.30;;;;;;;11.72;100.00;91107.75;2111508;28;20063;-80
2023/10/21 04:21:05;;;;;;;1.40;0.20;;;;;;;11.56;100.00;91101.78;2112983;27;20061;-79
2023/10/21 04:22:07;;;;;;;1.83;0.22;;;;;;;11.61;100.00;91111.06;2117179;27;20028;-79
2023/10/21 04:23:08;;;;;;;1.17;0.20;;;;;;;11.53;100.00;91108.06;2114500;27;20472;-82
2023/10/21 04:24:09;;;;;;;0.43;0.20;;;;;;;11.59;100.00;91124.91;2116136;28;20024;-80
2023/10/21 04:25:10;;;;;;;1.38;0.20;;;;;;;11.58;100.00;91115.41;2114543;28;20027;-84
2023/10/21 04:26:11;;;;;;;1.50;0.30;;;;;;;11.52;100.00;91111.94;2114795;28;20015;-82
2023/10/21 04:27:14;;;;;;;0.68;0.30;;;;;;;11.59;100.00;91124.19;2114751;28;20042;-79
2023/10/21 04:28:15;;;;;;;0.77;0.50;;;;;;;11.57;100.00;91116.63;2097864;28;20032;-83
2023/10/21 04:29:16;;;;;;;0.52;0.30;;;;;;;11.69;100.00;91124.78;2098096;28;20024;-81
2023/10/21 04:30:17;;;;;;;0.50;0.30;;;;;;;11.49;100.00;91126.25;2099120;28;20043;-82
2023/10/21 04:31:18;;;;;;;1.70;0.40;;;;;;;11.55;100.00;91126.34;2114973;28;20531;-80
2023/10/21 04:32:21;;;;;;;0.57;0.20;;;;;;;11.66;100.00;91123.75;2115024;28;20085;-80
2023/10/21 04:33:22;;;;;;;1.48;0.35;;;;;;;11.62;100.00;91131.25;2114329;28;20092;-80
2023/10/21 04:34:23;;;;;;;0.43;0.30;;;;;;;11.49;100.00;91139.63;2106548;28;20016;-83
2023/10/21 04:35:24;;;;;;;1.25;0.38;;;;;;;11.45;100.00;91136.41;2114795;27;20472;-81
2023/10/21 04:36:25;;;;;;;0.32;0.25;;;;;;;11.62;100.00;91133.19;2106119;28;20092;-84
2023/10/21 04:37:26;;;;;;;1.60;0.40;;;;;;;11.77;100.00;91137.28;2106384;28;20069;-79
2023/10/21 04:38:27;;;;;;;1.60;0.50;;;;;;;11.59;100.00;91135.63;2108440;28;20047;-79
2023/10/21 04:39:29;;;;;;;4.50;0.50;;;;;;;11.60;100.00;91131.75;2089773;28;20024;-83
2023/10/21 04:40:30;;;;;;;0.47;0.25;;;;;;;11.66;100.00;91141.75;2101595;28;20477;-80
2023/10/21 04:41:31;;;;;;;3.13;0.30;;;;;;;11.68;100.00;91145.44;2113887;28;20030;-82
2023/10/21 04:42:32;;;;;;;0.43;0.30;;;;;;;11.61;100.00;91135.16;2107118;28;20024;-82
2023/10/21 04:43:33;;;;;;;0.90;0.25;;;;;;;11.71;100.00;91151.78;2105846;28;20020;-80
2023/10/21 04:44:34;;;;;;;0.28;0.22;;;;;;;11.66;100.00;91137.13;2097710;28;20020;-80
2023/10/21 04:45:42;;;;;;;1.65;0.30;;;;;;;11.46;100.00;91140.59;2107663;28;20051;-79
2023/10/21 04:46:43;;;;;;;0.20;0.20;;;;;;;11.24;100.00;91149.09;2100379;28;20031;-83
2023/10/21 04:47:44;;;;;;;0.20;0.20;;;;;;;11.23;100.00;91138.84;2089575;28;20016;-82
2023/10/21 04:48:45;;;;;;;1.20;0.30;;;;;;;11.44;100.00;91148.34;2097775;28;20024;-80